createdAt,value
2018-07-04T00:03:15.863Z,18.55
2018-07-04T00:08:12.138Z,18.41
2018-07-04T00:13:08.963Z,18.20
2018-07-04T00:18:04.488Z,18.40
2018-07-04T00:23:00.205Z,18.16
2018-07-04T00:27:55.736Z,17.87
2018-07-04T00:32:51.575Z,17.83
2018-07-04T00:37:47.258Z,17.56
2018-07-04T00:42:44.075Z,17.63
2018-07-04T00:47:39.554Z,17.92
2018-07-04T00:52:35.427Z,17.63
2018-07-04T00:57:30.848Z,17.52
2018-07-04T01:02:26.723Z,17.39
2018-07-04T01:07:22.400Z,17.33
2018-07-04T01:12:18.368Z,17.42
2018-07-04T01:17:15.371Z,17.49
2018-07-04T01:22:10.706Z,17.22
2018-07-04T01:27:06.509Z,17.14
2018-07-04T01:32:02.959Z,17.26
2018-07-04T01:36:59.027Z,17.06
2018-07-04T01:41:54.832Z,16.91
2018-07-04T01:46:50.518Z,16.72
2018-07-04T01:51:47.830Z,16.72
2018-07-04T01:56:43.350Z,16.33
2018-07-04T02:01:39.257Z,16.57
2018-07-04T02:06:34.940Z,16.46
2018-07-04T02:11:30.710Z,16.57
2018-07-04T02:16:26.701Z,16.72
2018-07-04T02:21:23.655Z,16.72
2018-07-04T02:26:19.194Z,16.76
2018-07-04T02:31:15.138Z,16.47
2018-07-04T02:36:11.562Z,16.33
2018-07-04T02:41:07.315Z,16.23
2018-07-04T02:46:03.062Z,16.20
2018-07-04T02:50:58.930Z,16.35
2018-07-04T02:55:55.325Z,16.21
2018-07-04T03:00:51.064Z,16.13
2018-07-04T03:05:46.995Z,16.21
2018-07-04T03:10:43.053Z,16.12
2018-07-04T03:15:39.081Z,16.09
2018-07-04T03:20:34.873Z,16.01
2018-07-04T03:25:31.739Z,15.95
2018-07-04T03:30:27.302Z,16.23
2018-07-04T03:35:24.392Z,16.12
2018-07-04T03:40:20.055Z,16.35
2018-07-04T03:45:16.957Z,16.33
2018-07-04T03:50:12.506Z,16.08
2018-07-04T03:55:09.012Z,16.46
2018-07-04T04:00:05.029Z,16.50
2018-07-04T04:05:01.002Z,16.38
2018-07-04T04:09:57.254Z,16.54
2018-07-04T04:14:52.914Z,16.61
2018-07-04T04:19:48.993Z,16.36
2018-07-04T04:24:44.861Z,16.23
2018-07-04T04:29:40.891Z,16.38
2018-07-04T04:34:36.743Z,16.57
2018-07-04T04:39:32.974Z,16.74
2018-07-04T04:44:29.766Z,17.52
2018-07-04T04:49:26.583Z,17.89
2018-07-04T04:54:24.293Z,18.50
2018-07-04T04:59:20.186Z,18.03
2018-07-04T05:04:16.894Z,18.03
2018-07-04T05:09:12.688Z,17.86
2018-07-04T05:14:08.514Z,17.44
2018-07-04T05:19:04.287Z,17.42
2018-07-04T05:24:01.416Z,17.64
2018-07-04T05:28:57.562Z,17.63
2018-07-04T05:33:55.406Z,18.38
2018-07-04T05:38:53.136Z,19.18
2018-07-04T05:43:49.578Z,18.66
2018-07-04T05:48:45.793Z,19.08
2018-07-04T05:53:42.932Z,19.30
2018-07-04T05:58:39.548Z,19.67
2018-07-04T06:03:35.600Z,19.11
2018-07-04T06:08:31.332Z,18.71
2018-07-04T06:13:28.457Z,19.22
2018-07-04T06:18:26.386Z,19.56
2018-07-04T06:23:22.414Z,19.55
2018-07-04T06:28:18.348Z,19.49
2018-07-04T06:33:14.118Z,19.63
2018-07-04T06:38:09.880Z,19.81
2018-07-04T06:43:05.668Z,19.52
2018-07-04T06:48:01.668Z,19.71
2018-07-04T06:52:57.932Z,20.29
2018-07-04T06:57:54.180Z,20.48
2018-07-04T07:02:50.246Z,19.86
2018-07-04T07:07:46.012Z,20.37
2018-07-04T07:12:42.377Z,20.87
2018-07-04T07:17:38.929Z,20.78
2018-07-04T07:22:35.115Z,21.22
2018-07-04T07:27:32.638Z,21.24
2018-07-04T07:32:28.408Z,21.35
2018-07-04T07:37:25.664Z,21.43
2018-07-04T07:42:21.390Z,21.52
2018-07-04T07:47:18.055Z,22.06
2018-07-04T07:52:13.964Z,21.98
2018-07-04T07:57:10.045Z,22.22
2018-07-04T08:02:07.464Z,22.53
2018-07-04T08:07:03.272Z,22.38
2018-07-04T08:11:59.428Z,22.36
2018-07-04T08:16:56.151Z,23.27
2018-07-04T08:21:55.594Z,24.96
2018-07-04T08:26:54.690Z,25.66
2018-07-04T08:31:52.057Z,26.88
2018-07-04T08:36:49.536Z,27.05
2018-07-04T08:41:46.218Z,27.08
2018-07-04T08:46:42.618Z,27.54
2018-07-04T08:51:39.446Z,28.75
2018-07-04T08:56:36.609Z,27.59
2018-07-04T09:01:32.308Z,28.62
2018-07-04T09:06:29.254Z,27.67
2018-07-04T09:11:25.422Z,29.17
2018-07-04T09:16:22.382Z,30.03
2018-07-04T09:21:20.369Z,30.00
2018-07-04T09:26:17.769Z,30.55
2018-07-04T09:31:14.969Z,31.12
2018-07-04T09:36:12.252Z,28.54
2018-07-04T09:41:07.273Z,28.89
2018-07-04T09:46:03.267Z,29.63
2018-07-04T09:50:58.505Z,28.60
2018-07-04T09:55:54.291Z,28.25
2018-07-04T10:00:49.871Z,29.50
2018-07-04T10:05:47.883Z,29.68
2018-07-04T10:10:44.361Z,30.44
2018-07-04T10:15:42.580Z,31.22
2018-07-04T10:20:39.893Z,32.01
2018-07-04T10:25:37.876Z,31.96
2018-07-04T10:30:32.894Z,30.85
2018-07-04T10:35:30.449Z,31.27
2018-07-04T10:40:26.361Z,30.66
2018-07-04T10:45:23.284Z,31.47
2018-07-04T10:50:19.640Z,31.05
2018-07-04T10:55:17.002Z,31.84
2018-07-04T11:00:13.196Z,32.04
2018-07-04T11:05:10.050Z,33.34
2018-07-04T11:10:07.460Z,34.24
2018-07-04T11:15:05.558Z,34.70
2018-07-04T11:20:02.840Z,32.53
2018-07-04T11:24:57.793Z,31.70
2018-07-04T11:29:53.415Z,32.21
2018-07-04T11:34:49.785Z,32.49
2018-07-04T11:39:46.608Z,33.40
2018-07-04T11:44:44.939Z,33.55
2018-07-04T11:49:41.667Z,33.27
2018-07-04T11:54:37.173Z,33.67
2018-07-04T11:59:35.226Z,34.27
2018-07-04T12:04:31.457Z,34.57
2018-07-04T12:09:27.308Z,34.74
2018-07-04T12:14:24.144Z,34.11
2018-07-04T12:19:20.703Z,35.55
2018-07-04T12:24:17.648Z,35.24
2018-07-04T12:29:14.495Z,35.17
2018-07-04T12:34:10.206Z,35.79
2018-07-04T12:39:06.028Z,35.66
2018-07-04T12:44:01.254Z,33.32
2018-07-04T12:48:57.202Z,33.84
2018-07-04T12:53:54.110Z,34.74
2018-07-04T12:58:49.581Z,34.93
2018-07-04T13:03:45.504Z,33.83
2018-07-04T13:08:41.249Z,34.01
2018-07-04T13:13:37.253Z,34.73
2018-07-04T13:18:32.683Z,34.93
2018-07-04T13:23:29.409Z,34.47
2018-07-04T13:28:25.338Z,34.66
2018-07-04T13:33:21.719Z,34.57
2018-07-04T13:38:18.173Z,34.08
2018-07-04T13:43:14.296Z,34.25
2018-07-04T13:48:10.283Z,33.87
2018-07-04T13:53:06.339Z,33.69
2018-07-04T13:58:03.172Z,33.22
2018-07-04T14:02:58.689Z,32.89
2018-07-04T14:07:53.767Z,32.14
2018-07-04T14:12:48.798Z,31.31
2018-07-04T14:17:44.862Z,31.17
2018-07-04T14:22:44.232Z,31.18
2018-07-04T14:27:39.000Z,31.12
2018-07-04T14:32:34.880Z,31.00
2018-07-04T14:37:32.090Z,30.80
2018-07-04T14:42:27.477Z,30.68
2018-07-04T14:47:23.438Z,30.75
2018-07-04T14:52:19.211Z,30.81
2018-07-04T14:57:16.286Z,30.65
2018-07-04T15:02:11.882Z,30.57
2018-07-04T15:07:07.763Z,30.46
2018-07-04T15:12:04.583Z,30.25
2018-07-04T15:17:00.257Z,30.08
2018-07-04T15:21:56.056Z,29.75
2018-07-04T15:26:52.003Z,29.72
2018-07-04T15:31:48.113Z,29.76
2018-07-04T15:36:44.164Z,29.53
2018-07-04T15:41:39.990Z,29.34
2018-07-04T15:46:35.749Z,29.26
2018-07-04T15:51:31.490Z,29.02
2018-07-04T15:56:27.484Z,29.12
2018-07-04T16:01:23.362Z,28.89
2018-07-04T16:06:19.426Z,28.89
2018-07-04T16:11:16.806Z,29.02
2018-07-04T16:16:12.679Z,28.97
2018-07-04T16:21:08.834Z,29.08
2018-07-04T16:26:04.832Z,29.24
2018-07-04T16:31:01.035Z,29.22
2018-07-04T16:35:57.052Z,29.39
2018-07-04T16:40:52.958Z,29.56
2018-07-04T16:45:50.149Z,29.69
2018-07-04T16:50:46.228Z,29.88
2018-07-04T16:55:43.607Z,29.88
2018-07-04T17:00:39.308Z,29.75
2018-07-04T17:05:35.252Z,29.59
2018-07-04T17:10:32.163Z,29.49
2018-07-04T17:15:27.813Z,29.41
2018-07-04T17:20:23.856Z,29.20
2018-07-04T17:25:19.810Z,29.17
2018-07-04T17:30:15.827Z,29.01
2018-07-04T17:35:11.553Z,28.78
2018-07-04T17:40:07.292Z,28.67
2018-07-04T17:45:03.215Z,28.39
2018-07-04T17:49:58.969Z,28.23
2018-07-04T17:54:54.838Z,27.90
2018-07-04T17:59:50.615Z,27.77
2018-07-04T18:04:46.348Z,27.51
2018-07-04T18:09:42.262Z,27.36
2018-07-04T18:14:39.141Z,27.22
2018-07-04T18:19:34.592Z,27.33
2018-07-04T18:24:31.500Z,27.27
2018-07-04T18:29:27.130Z,27.05
2018-07-04T18:34:23.482Z,27.05
2018-07-04T18:39:19.447Z,27.05
2018-07-04T18:44:15.993Z,27.02
2018-07-04T18:49:12.940Z,26.99
2018-07-04T18:54:08.520Z,26.88
2018-07-04T18:59:04.467Z,26.95
2018-07-04T19:04:00.347Z,26.71
2018-07-04T19:08:56.277Z,26.60
2018-07-04T19:13:53.189Z,26.59
2018-07-04T19:18:49.814Z,26.56
2018-07-04T19:23:45.376Z,26.47
2018-07-04T19:28:41.171Z,26.40
2018-07-04T19:33:37.008Z,26.18
2018-07-04T19:38:34.391Z,26.09
2018-07-04T19:43:30.049Z,25.98
2018-07-04T19:48:26.877Z,25.95
2018-07-04T19:53:22.515Z,25.77
2018-07-04T19:58:18.804Z,25.68
2018-07-04T20:03:14.787Z,25.48
2018-07-04T20:08:11.185Z,25.51
2018-07-04T20:13:06.960Z,25.38
2018-07-04T20:18:02.889Z,25.28
2018-07-04T20:22:58.852Z,25.11
2018-07-04T20:27:54.578Z,25.08
2018-07-04T20:32:50.641Z,25.11
2018-07-04T20:37:46.975Z,25.06
2018-07-04T20:42:42.722Z,24.93
2018-07-04T20:47:38.853Z,24.77
2018-07-04T20:52:34.984Z,24.68
2018-07-04T20:57:30.861Z,24.61
2018-07-04T21:02:27.729Z,24.39
2018-07-04T21:07:23.206Z,24.28
2018-07-04T21:12:20.203Z,24.13
2018-07-04T21:17:16.817Z,24.08
2018-07-04T21:22:13.536Z,23.88
2018-07-04T21:27:09.069Z,23.96
2018-07-04T21:32:04.853Z,23.80
2018-07-04T21:37:00.781Z,23.81
2018-07-04T21:41:57.797Z,23.71
2018-07-04T21:46:54.323Z,23.63
2018-07-04T21:51:50.507Z,23.48
2018-07-04T21:56:47.439Z,23.54
2018-07-04T22:01:44.475Z,23.54
2018-07-04T22:06:40.141Z,23.31
2018-07-04T22:11:36.090Z,23.25
2018-07-04T22:16:32.104Z,23.31
2018-07-04T22:21:29.157Z,23.24
2018-07-04T22:26:24.631Z,23.27
2018-07-04T22:31:20.385Z,23.05
2018-07-04T22:36:16.213Z,22.87
2018-07-04T22:41:12.104Z,22.76
2018-07-04T22:46:08.384Z,22.80
2018-07-04T22:51:04.683Z,22.53
2018-07-04T22:56:00.558Z,22.45
2018-07-04T23:00:56.356Z,22.33
2018-07-04T23:05:52.365Z,22.22
2018-07-04T23:10:48.660Z,22.15
2018-07-04T23:15:45.332Z,22.10
2018-07-04T23:20:41.615Z,22.08
2018-07-04T23:25:38.412Z,21.93
2018-07-04T23:30:33.978Z,21.82
2018-07-04T23:35:31.306Z,21.75
2018-07-04T23:40:26.884Z,21.60
2018-07-04T23:45:23.024Z,21.51
2018-07-04T23:50:18.879Z,21.32
2018-07-04T23:55:15.374Z,21.11
